Terminal Aerodrome Forecast
Issued by NWS Sterling, VA

Current Version | Previous Version | Text Only | Print | Product List | Glossary On
Versions: 1 2 3 4 5 6 7 8 9 10 11 12 13 14 15 16 17 18 19 20
000
FTUS41 KLWX 270537
TAFBWI
TAF
KBWI 270537Z 2706/2812 VRB03KT P6SM FEW250
     FM271300 18008KT P6SM SCT250
     FM271700 15007KT P6SM BKN150
     FM280200 17005KT P6SM OVC040
     FM280800 VRB03KT P6SM -SHRA OVC020=

USA.gov is the U.S. government's official web portal to all federal, state and local government web resources and services.